Skip Navigation Links Skip Navigation Links

Current Weather

Dupont-Lapeer, Lapeer, Mich.

For information only: do not use for flight planning or navigation.
Latest weather
Observation time Sunday, May 31, 2020 10:16 AM EDT
Local time Sunday, May 31, 2020 10:30 AM EDT
Flight conditions Visual Meteorological Conditions
Winds
Wind direction North (350°)
Wind speed 7 mph
Visibility 10 mi.
Sky condition
Ceiling unlimited
Cloud layer scattered clouds 3,000 ft.
Cloud layer scattered clouds 3,600 ft.
Temperature 50°F
Dewpoint 40°F
Altimeter 30.33 in.Hg
Derived measurements
Relative humidity 68%
Density altitude -73 ft.
Remarks
Fully automated report.
Automated weather observing station with precipitation discriminator.
METAR KD95 311416Z AUTO 35006KT 10SM SCT030 SCT036 10/05 A3033 RMK AO2 T01020045

Settings

Location code

InnerDrive.Weather 4.0.6770.0 Release CLR 4.0.30319.42000
Copyright ©2018 Inner Drive Technology. All rights reserved. Portions Copyright ©1986-2018 David Braverman.

Find weather

Site navigation


Skip Navigation Links

Place info

Page info

PayPal - The safer, easier way to pay online!

Return home.

Copyright ©2020 Inner Drive Technology. Purveyors of fine, hand-crafted computer software. Page printed 2020-05-31T14:30:12 UTC.